首页
METAR-TAF:

METAR-TAF

机场 :

Vernal Regional Airport

Vernal, 犹他州, 美国

纬度: 40-26-39N, 经度: 109-30-42W, 海拔: 1607米

当前天气观测

该预报发布于56分钟前的23:53 UTC
风速6节,风向东转东南
温度 33°C
湿度 16%
气压 1016 hPa
能見度: 16.1公里
天空无云

METAR: KVEL 122353Z AUTO 11006KT 10SM CLR 33/04 A2999 RMK AO2 SLP086 60000 T03280039 10356 20283 58017

时间: 18:49 (00:49 UTC)

预报

该预报发布于1小时和29分钟前的23:20 UTC
预报有效从13日的 00点(UTC)到 13日的 24点(UTC)
风速6节,风向
能見度: 10公里
散云层高于15000英尺
从 13日的 0200点(UTC)
风速6节,风向西转西北
能見度: 10公里
天空无云
从 13日的 1500点(UTC)
风速3节,风向南转南东
能見度: 10公里
少量云层高于25000英尺
从 13日的 1900点(UTC)
风速10节,风向西南,有时为20节阵风
能見度: 10公里
少量云层高于25000英尺

TAF: KVEL 122320Z 1300/1324 01006KT P6SM SCT150 FM130200 29006KT P6SM SKC FM131500 16003KT P6SM FEW250 FM131900 22010G20KT P6SM FEW250

超过4000个机场的气象观测和天气预报(METAR&TAF报告)。

可查询的气象台以黄色和红色小点在地图上表示。

将鼠标移到小点上方,可查看气象台名称。

然后点击查看天气观测和预报。

如需切换地图:点击带黑十字的绿色按钮放大地图;点击带横线的绿色按钮缩小地图;或者点击绿色箭头查看邻近地区的地图。


METAR-TAF: